Time;durP1;ratioP1;P1;durP2;ratioP2;P2;SDS_P1;SDS_P2;PMS_P1;PMS_P2;Temp;Humidity;BMP_temperature;BMP_pressure;BME280_temperature;BME280_humidity;BME280_pressure;Samples;Min_cycle;Max_cycle;Signal;HPM_P1;HPM_P2
2024/03/27 00:00:23;;;;;;;7.82;4.80;;;7.10;99.90;;;;;;4970502;28;20042;-88
2024/03/27 00:02:50;;;;;;;8.18;4.75;;;7.00;99.90;;;;;;4974685;28;20125;-88
2024/03/27 00:05:17;;;;;;;8.88;4.82;;;7.00;99.90;;;;;;4971224;29;20122;-88
2024/03/27 00:07:44;;;;;;;8.88;4.88;;;6.90;99.90;;;;;;4987819;28;20050;-88
2024/03/27 00:10:13;;;;;;;9.25;4.80;;;6.90;99.90;;;;;;4979900;28;20115;-88
2024/03/27 00:12:40;;;;;;;9.57;4.97;;;6.80;99.90;;;;;;4979686;28;20038;-88
2024/03/27 00:15:07;;;;;;;7.80;4.97;;;6.80;99.90;;;;;;4976884;28;20094;-88
2024/03/27 00:17:34;;;;;;;8.70;5.00;;;6.70;99.90;;;;;;4979468;28;20511;-88
2024/03/27 00:20:00;;;;;;;8.80;5.13;;;6.70;99.90;;;;;;4970943;29;20039;-88
2024/03/27 00:22:30;;;;;;;9.02;4.93;;;6.80;99.90;;;;;;4980032;28;20047;-88
2024/03/27 00:24:57;;;;;;;8.60;5.13;;;6.70;99.90;;;;;;4975182;28;20102;-88
2024/03/27 00:27:23;;;;;;;7.70;4.47;;;6.70;99.90;;;;;;4966585;28;20047;-88
2024/03/27 00:29:51;;;;;;;9.30;4.93;;;6.70;99.90;;;;;;4992359;28;20035;-88
2024/03/27 00:32:17;;;;;;;8.45;5.03;;;6.80;99.90;;;;;;4973307;28;20053;-88
2024/03/27 00:34:44;;;;;;;7.40;4.63;;;7.80;99.90;;;;;;4968532;29;20126;-88
2024/03/27 00:37:10;;;;;;;9.88;4.75;;;7.50;99.90;;;;;;4969793;28;20123;-88
2024/03/27 00:39:37;;;;;;;9.90;5.22;;;7.70;99.90;;;;;;4995142;28;20479;-88
2024/03/27 00:42:04;;;;;;;7.57;4.70;;;6.80;99.90;;;;;;4978815;28;20133;-88
2024/03/27 00:44:31;;;;;;;9.18;4.78;;;6.80;99.90;;;;;;4979060;28;20109;-87
2024/03/27 00:46:57;;;;;;;8.85;4.90;;;6.80;99.90;;;;;;4978959;28;21517;-88
2024/03/27 00:49:24;;;;;;;9.07;4.90;;;7.60;99.90;;;;;;4973066;28;20109;-88
2024/03/27 00:51:51;;;;;;;8.18;4.65;;;6.70;99.90;;;;;;4977963;28;20125;-88
2024/03/27 00:54:17;;;;;;;13.65;5.10;;;7.20;99.90;;;;;;4972632;29;20043;-88
2024/03/27 00:56:44;;;;;;;8.35;4.97;;;7.40;99.90;;;;;;4976063;28;20496;-88
2024/03/27 00:59:10;;;;;;;8.40;4.97;;;7.10;99.90;;;;;;4977078;28;20035;-88
2024/03/27 01:01:37;;;;;;;7.55;4.80;;;7.00;99.90;;;;;;4965780;29;20098;-88
2024/03/27 01:04:04;;;;;;;7.78;4.97;;;6.70;99.90;;;;;;4978315;28;20070;-87
2024/03/27 01:06:30;;;;;;;7.72;4.60;;;6.70;99.90;;;;;;4975802;28;20042;-88
2024/03/27 01:08:57;;;;;;;8.65;4.80;;;6.60;99.90;;;;;;4967279;28;20042;-89
2024/03/27 01:11:24;;;;;;;10.27;4.82;;;6.60;99.90;;;;;;4977860;28;20038;-88
2024/03/27 01:13:51;;;;;;;8.07;4.68;;;7.10;99.90;;;;;;4977866;28;20046;-88
2024/03/27 01:16:18;;;;;;;8.63;4.55;;;6.60;99.90;;;;;;4975991;28;20416;-88
2024/03/27 01:18:45;;;;;;;8.95;4.97;;;6.50;99.90;;;;;;4977764;28;20046;-88
2024/03/27 01:21:12;;;;;;;8.10;4.28;;;6.60;99.90;;;;;;4977497;28;20408;-88
2024/03/27 01:23:38;;;;;;;8.52;4.57;;;6.30;99.90;;;;;;4977339;28;20039;-88
2024/03/27 01:26:05;;;;;;;8.82;4.63;;;7.60;99.90;;;;;;4969840;28;20047;-88
2024/03/27 01:28:32;;;;;;;8.25;4.25;;;7.00;99.90;;;;;;4985781;29;20464;-88
2024/03/27 01:30:58;;;;;;;7.13;4.57;;;6.50;99.90;;;;;;4971186;28;20042;-88
2024/03/27 01:33:25;;;;;;;7.78;4.57;;;6.50;99.90;;;;;;4977943;28;20114;-88
2024/03/27 01:35:52;;;;;;;9.52;4.30;;;6.80;99.90;;;;;;4975820;28;20439;-88
2024/03/27 01:38:18;;;;;;;8.77;4.30;;;6.50;99.90;;;;;;4969184;28;20034;-88
2024/03/27 01:40:45;;;;;;;9.35;5.25;;;6.50;99.90;;;;;;4978003;28;20039;-88
2024/03/27 01:43:12;;;;;;;8.50;4.70;;;6.50;99.90;;;;;;4978471;28;20043;-88
2024/03/27 01:45:38;;;;;;;8.10;4.15;;;6.40;99.90;;;;;;4969849;28;20094;-88
2024/03/27 01:48:06;;;;;;;7.60;4.65;;;6.40;99.90;;;;;;4977694;28;20043;-88
2024/03/27 01:50:35;;;;;;;9.95;4.32;;;6.50;99.90;;;;;;4973986;28;20121;-88
2024/03/27 01:53:05;;;;;;;8.68;4.50;;;7.70;99.90;;;;;;4969644;29;20043;-88
2024/03/27 01:55:32;;;;;;;8.45;4.45;;;6.40;99.90;;;;;;4965863;29;20083;-89
2024/03/27 01:58:01;;;;;;;6.95;4.18;;;6.40;99.90;;;;;;4972811;28;20113;-88
2024/03/27 02:00:28;;;;;;;7.38;4.18;;;6.40;99.90;;;;;;4970180;28;20041;-88
2024/03/27 02:02:55;;;;;;;7.97;4.28;;;6.30;99.90;;;;;;4976913;28;20043;-88
2024/03/27 02:05:25;;;;;;;8.85;4.85;;;6.40;99.90;;;;;;4977438;28;20054;-88
2024/03/27 02:07:51;;;;;;;8.40;4.75;;;7.40;99.90;;;;;;4993473;28;20047;-88
2024/03/27 02:10:18;;;;;;;9.23;4.55;;;7.60;99.90;;;;;;4972921;28;20045;-88
2024/03/27 02:12:45;;;;;;;7.70;4.35;;;6.50;99.90;;;;;;4977068;28;20051;-88
2024/03/27 02:15:13;;;;;;;7.00;4.70;;;6.60;99.90;;;;;;4977184;28;20037;-88
2024/03/27 02:17:40;;;;;;;9.23;4.50;;;7.50;99.90;;;;;;4977491;28;20034;-88
2024/03/27 02:20:16;;;;;;;8.85;3.95;;;6.60;99.90;;;;;;4964977;28;20049;-88
2024/03/27 02:22:45;;;;;;;9.93;4.18;;;6.60;99.90;;;;;;4977216;28;20105;-88
2024/03/27 02:25:34;;;;;;;9.07;4.47;;;7.80;99.90;;;;;;4969805;28;20050;-88
2024/03/27 02:28:01;;;;;;;10.88;4.10;;;6.70;99.90;;;;;;4976182;28;20035;-87
2024/03/27 02:30:28;;;;;;;7.95;4.60;;;6.70;99.90;;;;;;4976851;28;20427;-88
2024/03/27 02:32:55;;;;;;;8.15;4.38;;;7.80;99.90;;;;;;4972440;28;20034;-87
2024/03/27 02:35:21;;;;;;;9.45;4.03;;;7.30;99.90;;;;;;4975021;28;20039;-88
2024/03/27 02:37:48;;;;;;;8.45;4.18;;;6.90;99.90;;;;;;4976811;28;20039;-88
2024/03/27 02:40:15;;;;;;;10.35;4.00;;;6.90;99.90;;;;;;4963974;28;20090;-88
2024/03/27 02:42:41;;;;;;;8.23;3.95;;;6.90;99.90;;;;;;4977014;28;20057;-88
2024/03/27 02:45:08;;;;;;;7.63;4.10;;;6.90;99.90;;;;;;4969026;28;20039;-88
2024/03/27 02:47:37;;;;;;;8.55;4.38;;;7.00;99.90;;;;;;4962808;29;20047;-88
2024/03/27 02:50:04;;;;;;;8.32;4.13;;;7.40;99.90;;;;;;4971385;28;20050;-88
2024/03/27 02:52:30;;;;;;;9.88;4.45;;;7.00;99.90;;;;;;4976515;28;20117;-88
2024/03/27 02:54:57;;;;;;;7.57;3.97;;;7.50;99.90;;;;;;4971824;28;20549;-89
2024/03/27 02:57:23;;;;;;;7.93;4.10;;;7.10;99.90;;;;;;4976889;28;20039;-88
2024/03/27 02:59:50;;;;;;;6.80;3.90;;;7.40;99.90;;;;;;4973419;28;20461;-88
2024/03/27 03:02:17;;;;;;;9.98;4.20;;;7.80;99.90;;;;;;4973418;28;20109;-88
2024/03/27 03:04:43;;;;;;;8.32;4.45;;;7.00;99.90;;;;;;4963792;28;20046;-88
2024/03/27 03:07:10;;;;;;;6.72;4.18;;;7.00;99.90;;;;;;4969970;28;20804;-88
2024/03/27 03:09:37;;;;;;;7.47;3.97;;;7.00;99.90;;;;;;4968266;28;20046;-88
2024/03/27 03:12:04;;;;;;;7.88;4.32;;;8.10;99.90;;;;;;4966336;28;20405;-88
2024/03/27 03:14:30;;;;;;;7.28;3.90;;;6.90;99.90;;;;;;4973016;28;20042;-88
2024/03/27 03:16:57;;;;;;;7.65;3.92;;;7.40;99.90;;;;;;4972700;29;20039;-88
2024/03/27 03:19:24;;;;;;;8.90;4.07;;;7.30;99.90;;;;;;4960796;28;20035;-88
2024/03/27 03:21:50;;;;;;;8.02;4.15;;;6.80;99.90;;;;;;4969178;29;20412;-88
2024/03/27 03:24:17;;;;;;;7.68;4.15;;;7.40;99.90;;;;;;4973031;28;20527;-88
2024/03/27 03:26:50;;;;;;;8.63;4.00;;;6.80;99.90;;;;;;4975083;28;20086;-88
2024/03/27 03:29:16;;;;;;;10.10;4.35;;;6.70;99.90;;;;;;4976296;28;20043;-88
2024/03/27 03:31:43;;;;;;;8.25;4.43;;;6.70;99.90;;;;;;4976078;28;20057;-88
2024/03/27 03:34:10;;;;;;;10.88;4.32;;;6.70;99.90;;;;;;4974682;28;20027;-88
2024/03/27 03:36:36;;;;;;;7.80;4.10;;;7.10;99.90;;;;;;4976447;28;20104;-88
2024/03/27 03:39:04;;;;;;;8.57;4.78;;;6.60;99.90;;;;;;4975962;28;20105;-88
2024/03/27 03:41:33;;;;;;;6.75;4.43;;;6.90;99.90;;;;;;4969106;28;20121;-88
2024/03/27 03:44:02;;;;;;;7.95;4.00;;;6.60;99.90;;;;;;4972409;29;20071;-88
2024/03/27 03:46:29;;;;;;;7.72;4.38;;;6.60;99.90;;;;;;4975712;28;20081;-88
2024/03/27 03:48:56;;;;;;;6.45;4.20;;;6.50;99.90;;;;;;4968245;29;20063;-88
2024/03/27 03:51:23;;;;;;;9.88;4.97;;;6.80;99.90;;;;;;4954910;29;20047;-88
2024/03/27 03:53:50;;;;;;;8.07;4.82;;;6.50;99.90;;;;;;4972585;29;20109;-88
2024/03/27 03:56:17;;;;;;;9.00;4.68;;;7.40;99.90;;;;;;4944366;29;20046;-88
2024/03/27 03:58:43;;;;;;;8.10;4.53;;;7.20;99.90;;;;;;4953244;29;20040;-88
2024/03/27 04:01:14;;;;;;;8.27;4.50;;;6.40;99.90;;;;;;4953800;29;20408;-88
2024/03/27 04:03:41;;;;;;;11.40;4.57;;;6.40;99.90;;;;;;4949000;29;20076;-88
2024/03/27 04:06:07;;;;;;;7.38;4.70;;;6.40;99.90;;;;;;4951549;29;20071;-88
2024/03/27 04:08:34;;;;;;;8.52;4.53;;;7.10;99.90;;;;;;4954815;29;20494;-88
2024/03/27 04:11:04;;;;;;;10.55;5.03;;;6.40;99.90;;;;;;4956544;29;20035;-88
2024/03/27 04:13:31;;;;;;;7.63;4.35;;;6.40;99.90;;;;;;4956282;29;20035;-88
2024/03/27 04:16:01;;;;;;;10.63;4.55;;;6.40;99.90;;;;;;4948455;29;20115;-88
2024/03/27 04:18:28;;;;;;;9.93;4.50;;;7.10;99.90;;;;;;4955676;29;20039;-88
2024/03/27 04:20:54;;;;;;;8.90;4.85;;;6.50;99.90;;;;;;4956664;29;20083;-88
2024/03/27 04:23:21;;;;;;;11.25;4.85;;;6.70;99.90;;;;;;4956140;29;20043;-88
2024/03/27 04:25:50;;;;;;;8.85;4.45;;;7.00;99.90;;;;;;4954599;29;20043;-88
2024/03/27 04:28:17;;;;;;;8.38;4.88;;;6.60;99.90;;;;;;4944547;29;20047;-88
2024/03/27 04:30:43;;;;;;;9.43;5.18;;;7.40;99.90;;;;;;4943903;29;20106;-88
2024/03/27 04:33:12;;;;;;;8.75;4.95;;;7.20;99.90;;;;;;4948727;29;20039;-88
2024/03/27 04:35:39;;;;;;;8.57;4.88;;;6.60;99.90;;;;;;4967864;29;20094;-89
2024/03/27 04:38:05;;;;;;;7.65;4.63;;;7.40;99.90;;;;;;4955229;29;20043;-88
2024/03/27 04:40:32;;;;;;;9.13;5.05;;;6.60;99.90;;;;;;4956219;29;20039;-88
2024/03/27 04:42:59;;;;;;;8.40;5.03;;;6.60;99.90;;;;;;4947348;29;20424;-88
2024/03/27 04:45:25;;;;;;;8.20;4.70;;;6.70;99.90;;;;;;4950013;29;20497;-88
2024/03/27 04:47:52;;;;;;;10.18;4.97;;;6.80;99.90;;;;;;4946997;29;20047;-88
2024/03/27 04:50:19;;;;;;;7.68;4.80;;;6.80;99.90;;;;;;4956475;29;20055;-88
2024/03/27 04:52:45;;;;;;;8.15;5.07;;;7.40;99.90;;;;;;4956055;29;20493;-88
2024/03/27 04:55:12;;;;;;;11.40;5.20;;;7.10;99.90;;;;;;4950206;29;20047;-88
2024/03/27 04:57:39;;;;;;;7.97;4.80;;;7.60;99.90;;;;;;4950878;29;20210;-88
2024/03/27 05:00:07;;;;;;;8.30;5.35;;;7.40;99.90;;;;;;4953698;29;20540;-88
2024/03/27 05:02:33;;;;;;;8.65;4.72;;;7.00;99.90;;;;;;4955366;29;20039;-88
2024/03/27 05:05:00;;;;;;;8.93;5.18;;;7.00;99.90;;;;;;4957815;29;20102;-88
2024/03/27 05:07:27;;;;;;;10.60;5.20;;;7.10;99.90;;;;;;4949390;29;20140;-87
2024/03/27 05:09:53;;;;;;;8.98;4.95;;;7.10;99.90;;;;;;4955552;29;20046;-88
2024/03/27 05:12:20;;;;;;;10.25;6.05;;;7.10;99.90;;;;;;4959087;29;20046;-88
2024/03/27 05:14:47;;;;;;;10.32;5.60;;;7.80;99.90;;;;;;4957234;29;20043;-88
2024/03/27 05:17:13;;;;;;;9.77;5.20;;;7.20;99.90;;;;;;4952059;29;20119;-88
2024/03/27 05:19:40;;;;;;;10.77;5.20;;;7.20;99.90;;;;;;4950406;29;20043;-88
2024/03/27 05:22:09;;;;;;;10.93;5.35;;;7.20;99.90;;;;;;4949370;29;20051;-88
2024/03/27 05:24:36;;;;;;;8.90;5.68;;;8.30;99.90;;;;;;4956378;29;20544;-88
2024/03/27 05:27:03;;;;;;;12.02;5.40;;;7.90;99.90;;;;;;4959006;29;20055;-88
2024/03/27 05:29:30;;;;;;;9.05;5.25;;;8.10;99.90;;;;;;4946492;29;20047;-88
2024/03/27 05:31:56;;;;;;;9.18;4.95;;;7.60;99.90;;;;;;4958684;29;20511;-89
2024/03/27 05:34:27;;;;;;;9.90;4.95;;;7.30;99.90;;;;;;4958776;29;20047;-89
2024/03/27 05:36:53;;;;;;;9.75;5.45;;;7.20;99.90;;;;;;4958686;29;20075;-88
2024/03/27 05:39:20;;;;;;;11.13;5.72;;;7.20;99.90;;;;;;4956132;29;20094;-88
2024/03/27 05:41:47;;;;;;;9.30;5.43;;;7.70;99.90;;;;;;4952481;29;20848;-88
2024/03/27 05:44:13;;;;;;;10.32;5.15;;;7.90;99.90;;;;;;4958791;29;20046;-89
2024/03/27 05:46:41;;;;;;;8.70;4.75;;;7.10;99.90;;;;;;4958214;29;20085;-88
2024/03/27 05:49:09;;;;;;;9.48;5.50;;;7.60;99.90;;;;;;4946935;29;20058;-89
2024/03/27 05:51:36;;;;;;;9.82;5.35;;;7.70;99.90;;;;;;4957383;29;20075;-88
2024/03/27 05:54:03;;;;;;;12.68;5.88;;;7.20;99.90;;;;;;4958604;29;20082;-89
2024/03/27 05:56:30;;;;;;;11.57;5.68;;;7.20;99.90;;;;;;4951723;29;20063;-92
2024/03/27 05:58:57;;;;;;;9.65;5.65;;;7.20;99.90;;;;;;4952718;29;20031;-92
2024/03/27 06:01:23;;;;;;;10.23;5.57;;;7.50;99.90;;;;;;4949766;29;20047;-91
2024/03/27 06:03:55;;;;;;;8.73;5.53;;;7.20;99.90;;;;;;4958236;29;20043;-91
2024/03/27 06:06:21;;;;;;;7.95;5.05;;;7.30;99.90;;;;;;4957877;29;20043;-91
2024/03/27 06:08:51;;;;;;;9.63;5.57;;;7.40;99.90;;;;;;4955601;29;20043;-91
2024/03/27 06:11:20;;;;;;;9.38;5.32;;;8.30;99.90;;;;;;4949615;29;20071;-92
2024/03/27 06:13:48;;;;;;;9.95;5.25;;;8.50;99.90;;;;;;4958420;29;20043;-92
2024/03/27 06:16:15;;;;;;;11.35;5.43;;;8.10;99.90;;;;;;4958051;29;20039;-91
2024/03/27 06:18:54;;;;;;;10.50;5.55;;;7.60;99.90;;;;;;4950224;29;20438;-91
2024/03/27 06:21:21;;;;;;;12.45;5.78;;;8.60;99.90;;;;;;4940368;29;20098;-92
2024/03/27 06:23:48;;;;;;;8.88;5.28;;;8.90;99.90;;;;;;4958462;29;20043;-92
2024/03/27 06:26:14;;;;;;;9.88;5.97;;;7.80;99.90;;;;;;4948879;29;20038;-92
2024/03/27 06:28:41;;;;;;;9.25;5.38;;;7.90;99.90;;;;;;4958250;29;20039;-92
2024/03/27 06:31:08;;;;;;;10.73;5.65;;;7.80;99.90;;;;;;4956219;29;20035;-93
2024/03/27 06:33:35;;;;;;;9.98;5.45;;;7.90;99.90;;;;;;4957794;29;20054;-92
2024/03/27 06:36:05;;;;;;;11.60;5.07;;;8.40;99.90;;;;;;4946306;29;20485;-92
2024/03/27 06:38:33;;;;;;;8.57;5.13;;;8.00;99.90;;;;;;4948142;29;20035;-92
2024/03/27 06:41:00;;;;;;;8.15;4.90;;;8.00;99.90;;;;;;4951871;29;20126;-92
2024/03/27 06:43:27;;;;;;;12.00;5.18;;;8.20;99.90;;;;;;4948420;29;20095;-89
2024/03/27 06:45:54;;;;;;;9.65;4.95;;;8.50;99.90;;;;;;4945863;29;20133;-88
2024/03/27 06:48:21;;;;;;;10.38;4.97;;;8.20;99.90;;;;;;4960721;28;20525;-88
2024/03/27 06:50:52;;;;;;;8.80;5.00;;;8.40;99.90;;;;;;4976678;28;20078;-88
2024/03/27 06:53:19;;;;;;;11.88;5.25;;;8.90;99.90;;;;;;4975818;28;20046;-88
2024/03/27 06:55:45;;;;;;;8.68;5.10;;;8.50;99.90;;;;;;4991026;28;20035;-88
2024/03/27 06:58:12;;;;;;;10.02;5.10;;;9.10;99.90;;;;;;4976267;28;20038;-89
2024/03/27 07:00:40;;;;;;;15.73;4.97;;;8.60;99.90;;;;;;4972753;28;20522;-88
2024/03/27 07:03:15;;;;;;;9.68;5.18;;;8.80;99.90;;;;;;4978342;28;20055;-89
2024/03/27 07:05:42;;;;;;;7.70;4.60;;;8.90;99.90;;;;;;4968491;28;20035;-88
2024/03/27 07:08:08;;;;;;;11.13;4.68;;;9.10;99.90;;;;;;4983179;28;20039;-88
2024/03/27 07:10:35;;;;;;;12.35;4.63;;;9.30;99.90;;;;;;4970856;28;20918;-88
2024/03/27 07:13:02;;;;;;;9.25;4.90;;;9.40;99.90;;;;;;4966369;28;20126;-89
2024/03/27 07:15:29;;;;;;;7.72;4.28;;;9.40;99.90;;;;;;4975874;28;20562;-88
2024/03/27 07:17:55;;;;;;;10.90;5.15;;;9.50;99.90;;;;;;4987425;28;20069;-89
2024/03/27 07:20:22;;;;;;;9.38;4.65;;;9.70;99.90;;;;;;4970171;28;20093;-89
2024/03/27 07:22:49;;;;;;;7.35;4.38;;;9.80;99.90;;;;;;4968732;29;20087;-88
2024/03/27 07:25:15;;;;;;;8.95;4.47;;;9.90;99.90;;;;;;4966137;28;20050;-89
2024/03/27 07:27:45;;;;;;;10.75;4.63;;;10.00;99.90;;;;;;4976139;28;20046;-87
2024/03/27 07:30:14;;;;;;;11.45;4.65;;;10.00;99.90;;;;;;4969557;28;20118;-88
2024/03/27 07:32:40;;;;;;;8.80;4.30;;;10.10;99.90;;;;;;4964491;28;20043;-88
2024/03/27 07:35:07;;;;;;;10.10;4.32;;;10.10;99.90;;;;;;4961450;28;20038;-88
2024/03/27 07:37:36;;;;;;;10.27;4.18;;;10.30;99.90;;;;;;4970599;28;20034;-88
2024/03/27 07:40:03;;;;;;;6.70;4.05;;;10.40;99.90;;;;;;4973452;28;20046;-88
2024/03/27 07:42:30;;;;;;;8.48;4.45;;;10.50;99.90;;;;;;4967157;28;20068;-88
2024/03/27 07:44:56;;;;;;;7.00;4.18;;;10.60;99.90;;;;;;4966579;28;20093;-88
2024/03/27 07:47:23;;;;;;;7.95;4.03;;;10.60;99.90;;;;;;4969018;28;20045;-87
2024/03/27 07:49:50;;;;;;;9.13;4.00;;;10.70;99.90;;;;;;4975560;28;20058;-88
2024/03/27 07:52:17;;;;;;;8.93;4.15;;;10.90;99.90;;;;;;4975594;28;20035;-87
2024/03/27 07:54:47;;;;;;;7.43;4.43;;;10.90;99.90;;;;;;4974781;28;20043;-88
2024/03/27 07:57:13;;;;;;;8.00;3.90;;;10.80;99.90;;;;;;4967648;28;20073;-89
2024/03/27 07:59:40;;;;;;;8.98;4.57;;;10.90;99.90;;;;;;4987283;28;20062;-89
2024/03/27 08:02:07;;;;;;;10.38;4.57;;;11.10;99.90;;;;;;4982813;28;20574;-88
2024/03/27 08:04:33;;;;;;;8.18;4.28;;;11.00;99.90;;;;;;4975181;28;20523;-88
2024/03/27 08:07:00;;;;;;;7.35;4.10;;;11.00;99.90;;;;;;4965336;28;20039;-88
2024/03/27 08:09:26;;;;;;;6.70;3.97;;;11.10;99.90;;;;;;4966591;28;20043;-88
2024/03/27 08:11:53;;;;;;;7.30;4.10;;;11.10;99.90;;;;;;4966612;29;20440;-88
2024/03/27 08:14:20;;;;;;;7.47;4.13;;;11.20;99.90;;;;;;4972192;28;20042;-89
2024/03/27 08:16:50;;;;;;;10.40;4.55;;;11.20;99.90;;;;;;4975432;28;20539;-89
2024/03/27 08:19:17;;;;;;;6.68;3.70;;;11.30;99.90;;;;;;4970777;28;20039;-89
2024/03/27 08:21:46;;;;;;;6.70;4.03;;;11.20;99.90;;;;;;4965551;28;20035;-91
2024/03/27 08:24:13;;;;;;;10.45;4.28;;;11.30;99.90;;;;;;4978980;28;20082;-90
2024/03/27 08:26:40;;;;;;;6.72;3.97;;;11.30;99.90;;;;;;4972721;28;20195;-89
2024/03/27 08:29:07;;;;;;;11.32;4.47;;;10.70;99.90;;;;;;4963076;28;20098;-89
2024/03/27 08:31:45;;;;;;;8.38;4.18;;;11.40;99.90;;;;;;4973813;29;20039;-89
2024/03/27 08:34:12;;;;;;;7.97;4.10;;;11.30;99.90;;;;;;4975980;28;20101;-88
2024/03/27 08:36:38;;;;;;;6.47;4.10;;;11.40;99.90;;;;;;4969811;29;20039;-88
2024/03/27 08:39:09;;;;;;;8.23;4.15;;;11.40;99.90;;;;;;4960101;29;20062;-89
2024/03/27 08:41:39;;;;;;;7.93;4.78;;;11.00;99.90;;;;;;4979331;28;20047;-88
2024/03/27 08:44:05;;;;;;;7.65;3.85;;;11.50;99.90;;;;;;4975607;28;20514;-89
2024/03/27 08:46:32;;;;;;;7.03;3.97;;;11.60;99.90;;;;;;4978415;29;20133;-88
2024/03/27 08:48:59;;;;;;;9.75;4.25;;;11.50;99.90;;;;;;4992274;28;20133;-88
2024/03/27 08:51:26;;;;;;;7.63;4.07;;;11.50;99.90;;;;;;4968135;29;20115;-88
2024/03/27 08:53:53;;;;;;;7.43;4.43;;;11.50;99.90;;;;;;4974229;28;20043;-88
2024/03/27 08:56:19;;;;;;;8.27;4.43;;;11.10;99.90;;;;;;4974228;28;20031;-88
2024/03/27 08:58:46;;;;;;;8.88;4.47;;;11.50;99.90;;;;;;4973194;28;20035;-88
2024/03/27 09:01:19;;;;;;;8.15;4.25;;;11.60;99.90;;;;;;4977025;28;20504;-93
2024/03/27 09:03:46;;;;;;;9.60;4.72;;;11.50;99.90;;;;;;4975020;28;20078;-91
2024/03/27 09:06:16;;;;;;;9.32;4.10;;;11.60;99.90;;;;;;4974404;28;20054;-90
2024/03/27 09:08:46;;;;;;;6.15;3.85;;;11.60;99.90;;;;;;4964630;28;20420;-91
2024/03/27 09:11:13;;;;;;;6.43;3.55;;;11.60;99.90;;;;;;4968610;28;20050;-90
2024/03/27 09:13:42;;;;;;;9.05;3.90;;;11.70;99.90;;;;;;4973220;28;20110;-91
2024/03/27 09:16:15;;;;;;;9.85;3.70;;;11.80;99.90;;;;;;4966786;28;20046;-91
2024/03/27 09:18:42;;;;;;;9.30;3.92;;;11.90;99.90;;;;;;4966936;28;20104;-92
2024/03/27 09:21:10;;;;;;;8.90;3.97;;;12.00;99.90;;;;;;4993663;28;20501;-91
2024/03/27 09:23:37;;;;;;;6.72;3.70;;;12.10;99.90;;;;;;4971902;29;20105;-91
2024/03/27 09:26:06;;;;;;;6.25;3.58;;;12.30;99.90;;;;;;4987872;29;20556;-93
2024/03/27 09:28:33;;;;;;;7.80;3.92;;;12.30;99.90;;;;;;4977754;28;20042;-92
2024/03/27 09:31:03;;;;;;;6.57;3.72;;;12.30;99.90;;;;;;4971941;28;20118;-93
2024/03/27 09:33:30;;;;;;;7.00;3.42;;;12.40;99.90;;;;;;4975403;28;20051;-92
2024/03/27 09:35:57;;;;;;;4.53;2.95;;;12.40;99.90;;;;;;4972210;28;20038;-90
2024/03/27 09:38:24;;;;;;;4.90;3.00;;;12.40;99.90;;;;;;4972017;28;20081;-90
2024/03/27 09:40:58;;;;;;;6.10;3.13;;;12.40;99.90;;;;;;4973580;29;20039;-91
2024/03/27 09:43:25;;;;;;;7.82;3.10;;;12.50;99.90;;;;;;4968008;29;20523;-95
2024/03/27 09:45:52;;;;;;;4.88;2.72;;;12.50;99.90;;;;;;4981947;28;20069;-90
2024/03/27 09:48:20;;;;;;;5.47;2.60;;;12.50;99.90;;;;;;4971856;28;20065;-91
2024/03/27 09:50:46;;;;;;;6.28;2.78;;;12.50;99.90;;;;;;4973296;28;20043;-90
2024/03/27 09:53:14;;;;;;;5.30;2.83;;;12.40;99.90;;;;;;4974333;28;20469;-91
2024/03/27 09:55:41;;;;;;;5.53;3.15;;;12.50;99.90;;;;;;4977879;28;20046;-91
2024/03/27 09:58:18;;;;;;;6.10;3.10;;;12.60;99.90;;;;;;4993299;28;20041;-91
2024/03/27 10:00:45;;;;;;;7.05;3.22;;;12.60;99.90;;;;;;4972102;29;20047;-88
2024/03/27 10:03:14;;;;;;;4.90;3.03;;;12.60;99.90;;;;;;4960207;29;20043;-89
2024/03/27 10:05:45;;;;;;;6.45;3.25;;;12.70;99.90;;;;;;4961207;28;20078;-87
2024/03/27 10:08:14;;;;;;;4.72;2.85;;;12.70;99.90;;;;;;4976564;28;20047;-87
2024/03/27 10:10:44;;;;;;;5.50;2.90;;;12.70;99.90;;;;;;4963948;29;20047;-88
2024/03/27 10:13:11;;;;;;;5.82;3.00;;;12.80;99.90;;;;;;4975144;28;20046;-87
2024/03/27 10:15:47;;;;;;;5.25;3.10;;;13.00;99.90;;;;;;4982773;28;20089;-88
2024/03/27 10:18:14;;;;;;;7.20;3.47;;;13.10;99.90;;;;;;4963289;28;20046;-88
2024/03/27 10:20:42;;;;;;;5.53;3.10;;;13.20;99.90;;;;;;4968537;28;20040;-88
2024/03/27 10:23:17;;;;;;;6.10;3.70;;;13.30;99.90;;;;;;4972240;28;20050;-89
2024/03/27 10:25:47;;;;;;;;;;;13.50;99.90;;;;;;4976143;28;20082;-89
2024/03/27 10:28:14;;;;;;;6.50;3.30;;;13.60;99.90;;;;;;4977255;28;19918;-89
2024/03/27 10:30:41;;;;;;;5.45;3.30;;;13.60;99.90;;;;;;4974120;28;20077;-87
2024/03/27 10:33:08;;;;;;;6.30;3.55;;;13.60;99.90;;;;;;4966528;28;20129;-88
2024/03/27 10:35:38;;;;;;;6.13;3.28;;;13.70;99.90;;;;;;4977890;28;20509;-88
2024/03/27 10:38:04;;;;;;;4.47;2.92;;;13.60;99.90;;;;;;4970070;28;20039;-88
2024/03/27 10:40:36;;;;;;;6.38;3.30;;;13.50;99.90;;;;;;4976452;28;20039;-88
2024/03/27 10:43:22;;;;;;;5.80;3.30;;;13.40;99.90;;;;;;4972945;28;20042;-89
2024/03/27 10:45:50;;;;;;;5.47;3.50;;;13.30;99.90;;;;;;4966838;28;20034;-89
2024/03/27 10:48:18;;;;;;;5.60;3.22;;;13.20;99.90;;;;;;4971651;28;20047;-89
2024/03/27 10:50:46;;;;;;;6.63;3.35;;;13.40;99.90;;;;;;4986109;28;20044;-89
2024/03/27 10:53:15;;;;;;;7.63;3.50;;;13.20;99.90;;;;;;4965656;28;20397;-90
2024/03/27 10:55:42;;;;;;;8.15;3.58;;;13.20;99.90;;;;;;4969350;28;20085;-87
2024/03/27 10:58:09;;;;;;;6.65;3.13;;;13.20;99.90;;;;;;4983328;28;20067;-88
2024/03/27 11:00:36;;;;;;;5.88;3.60;;;13.20;99.90;;;;;;4973981;28;20396;-88
2024/03/27 11:03:04;;;;;;;6.78;3.72;;;13.20;99.90;;;;;;4962645;28;20043;-87
2024/03/27 11:05:31;;;;;;;6.82;4.10;;;13.10;99.90;;;;;;4957717;29;20035;-87
2024/03/27 11:07:58;;;;;;;9.38;4.70;;;13.10;99.90;;;;;;4968932;28;20562;-88
2024/03/27 11:10:27;;;;;;;6.05;3.97;;;13.00;99.90;;;;;;4971001;28;20077;-88
2024/03/27 11:12:57;;;;;;;8.68;4.45;;;12.90;99.90;;;;;;4963269;28;20393;-89
2024/03/27 11:15:26;;;;;;;7.60;4.40;;;12.70;99.90;;;;;;4970639;28;20049;-90
2024/03/27 11:17:57;;;;;;;11.38;4.20;;;12.70;99.90;;;;;;4970912;28;20058;-90
2024/03/27 11:20:27;;;;;;;5.57;3.90;;;12.70;99.90;;;;;;4975817;28;20034;-90
2024/03/27 11:22:55;;;;;;;6.00;3.95;;;12.60;99.90;;;;;;4976035;28;20039;-89
2024/03/27 11:25:26;;;;;;;9.93;4.10;;;12.50;99.90;;;;;;4960347;28;20043;-89
2024/03/27 11:27:52;;;;;;;6.22;3.92;;;12.50;99.90;;;;;;4969927;28;20039;-89
2024/03/27 11:30:20;;;;;;;7.20;3.70;;;12.50;99.90;;;;;;4975518;28;20097;-89
2024/03/27 11:32:51;;;;;;;5.82;3.92;;;12.40;99.90;;;;;;4970365;29;20039;-89
2024/03/27 11:35:18;;;;;;;7.10;3.65;;;12.30;99.90;;;;;;4963433;28;20043;-89
2024/03/27 11:37:45;;;;;;;5.13;3.45;;;12.10;99.90;;;;;;4971323;28;20043;-89
2024/03/27 11:40:13;;;;;;;6.32;3.70;;;12.00;99.90;;;;;;4975850;28;20034;-89
2024/03/27 11:42:40;;;;;;;6.72;4.00;;;12.00;99.90;;;;;;4975775;28;20035;-89
2024/03/27 11:45:12;;;;;;;6.25;3.60;;;11.90;99.90;;;;;;4973346;28;20047;-89
2024/03/27 11:47:39;;;;;;;6.93;3.83;;;12.10;99.90;;;;;;4957210;29;20049;-89
2024/03/27 11:50:13;;;;;;;6.18;3.90;;;12.10;99.90;;;;;;4972834;28;20083;-89
2024/03/27 11:52:40;;;;;;;8.00;3.78;;;11.70;99.90;;;;;;4971584;29;20046;-89
2024/03/27 11:55:07;;;;;;;7.55;3.67;;;12.10;99.90;;;;;;4972597;28;20038;-89
2024/03/27 11:57:34;;;;;;;7.85;3.80;;;12.10;99.90;;;;;;4975445;28;20506;-89
2024/03/27 12:00:06;;;;;;;5.53;3.78;;;12.10;99.90;;;;;;4971765;29;20488;-89
2024/03/27 12:02:34;;;;;;;7.13;3.60;;;12.10;99.90;;;;;;4965432;28;20073;-89
2024/03/27 12:05:04;;;;;;;7.07;3.78;;;12.00;99.90;;;;;;4991920;28;20039;-90
2024/03/27 12:07:32;;;;;;;8.20;4.53;;;12.00;99.90;;;;;;4988383;28;20136;-87
2024/03/27 12:10:00;;;;;;;6.63;3.65;;;11.90;99.90;;;;;;4969880;28;20038;-86
2024/03/27 12:12:28;;;;;;;6.68;3.60;;;12.00;99.90;;;;;;4975417;28;20046;-86
2024/03/27 12:14:58;;;;;;;6.15;3.60;;;12.00;99.90;;;;;;4972730;28;20110;-87
2024/03/27 12:17:37;;;;;;;6.65;3.10;;;11.90;99.90;;;;;;4977461;28;20039;-87
2024/03/27 12:20:05;;;;;;;5.50;3.30;;;12.00;99.90;;;;;;4967814;28;20041;-87
2024/03/27 12:22:35;;;;;;;6.05;2.60;;;12.00;99.90;;;;;;4965164;28;20492;-87
2024/03/27 12:25:02;;;;;;;4.57;2.28;;;12.00;99.90;;;;;;4984472;28;20047;-87
2024/03/27 12:27:30;;;;;;;3.50;2.10;;;12.10;99.90;;;;;;4972283;28;20089;-87
2024/03/27 12:29:57;;;;;;;4.65;2.30;;;12.00;99.90;;;;;;4985977;28;20039;-86
2024/03/27 12:32:25;;;;;;;6.45;2.15;;;12.10;99.90;;;;;;4986416;28;20046;-87
2024/03/27 12:34:52;;;;;;;7.65;2.72;;;12.10;99.90;;;;;;4968711;28;20071;-87
2024/03/27 12:37:18;;;;;;;3.88;2.20;;;12.10;99.90;;;;;;4974397;28;20066;-87
2024/03/27 12:39:47;;;;;;;6.20;2.47;;;12.20;99.90;;;;;;4974792;28;20046;-85
2024/03/27 12:42:14;;;;;;;4.30;2.45;;;12.20;99.90;;;;;;4966081;28;20064;-87
2024/03/27 12:44:42;;;;;;;4.90;2.17;;;12.70;99.90;;;;;;4965255;28;20047;-87
2024/03/27 12:47:08;;;;;;;5.93;2.78;;;12.30;99.90;;;;;;4969184;28;20468;-86
2024/03/27 12:49:35;;;;;;;4.82;2.53;;;12.20;99.90;;;;;;4965713;29;20093;-86
2024/03/27 12:52:02;;;;;;;6.10;2.90;;;12.10;99.90;;;;;;4958503;29;20043;-86